createdAt,value
2023-12-21T00:00:54.970Z,98824.60
2023-12-21T00:03:47.169Z,98822.41
2023-12-21T00:06:19.591Z,98820.49
2023-12-21T00:08:51.578Z,98810.07
2023-12-21T00:11:24.188Z,98808.66
2023-12-21T00:13:56.371Z,98809.36
2023-12-21T00:16:29.742Z,98805.27
2023-12-21T00:19:02.524Z,98804.11
2023-12-21T00:21:34.759Z,98801.73
2023-12-21T00:24:07.366Z,98796.27
2023-12-21T00:26:39.394Z,98792.02
2023-12-21T00:29:12.322Z,98788.45
2023-12-21T00:31:44.378Z,98787.77
2023-12-21T00:34:16.493Z,98786.05
2023-12-21T00:36:48.551Z,98782.89
2023-12-21T00:39:20.723Z,98784.65
2023-12-21T00:41:52.664Z,98782.55
2023-12-21T00:44:24.609Z,98779.45
2023-12-21T00:46:56.650Z,98774.30
2023-12-21T00:49:28.788Z,98775.63
2023-12-21T00:52:01.053Z,98773.23
2023-12-21T00:54:33.305Z,98775.27
2023-12-21T00:57:07.413Z,98774.73
2023-12-21T00:59:41.514Z,98775.55
2023-12-21T01:02:13.847Z,98769.58
2023-12-21T01:04:46.055Z,98766.41
2023-12-21T01:07:18.163Z,98764.56
2023-12-21T01:09:50.156Z,98757.82
2023-12-21T01:12:22.248Z,98751.02
2023-12-21T01:14:54.296Z,98755.46
2023-12-21T01:17:26.253Z,98752.95
2023-12-21T01:19:58.307Z,98750.44
2023-12-21T01:22:30.382Z,98749.77
2023-12-21T01:25:02.558Z,98745.71
2023-12-21T01:27:34.701Z,98741.98
2023-12-21T01:30:08.053Z,98741.19
2023-12-21T01:32:40.226Z,98729.80
2023-12-21T01:35:12.860Z,98723.52
2023-12-21T01:37:45.300Z,98721.17
2023-12-21T01:40:19.012Z,98716.73
2023-12-21T01:42:51.193Z,98712.18
2023-12-21T01:45:23.129Z,98705.24
2023-12-21T01:47:55.322Z,98700.96
2023-12-21T01:50:27.573Z,98695.45
2023-12-21T01:53:01.740Z,98690.86
2023-12-21T01:55:34.000Z,98689.65
2023-12-21T01:58:06.342Z,98688.62
2023-12-21T02:00:38.987Z,98693.56
2023-12-21T02:03:11.357Z,98685.44
2023-12-21T02:05:43.662Z,98678.80
2023-12-21T02:08:15.765Z,98676.77
2023-12-21T02:10:48.308Z,98672.16
2023-12-21T02:13:20.524Z,98666.88
2023-12-21T02:15:54.144Z,98668.72
2023-12-21T02:18:27.049Z,98666.99
2023-12-21T02:20:59.923Z,98661.39
2023-12-21T02:23:35.435Z,98654.58
2023-12-21T02:26:08.326Z,98649.66
2023-12-21T02:28:40.474Z,98644.45
2023-12-21T02:31:12.664Z,98634.16
2023-12-21T02:33:44.990Z,98633.52
2023-12-21T02:36:17.055Z,98621.61
2023-12-21T02:38:49.232Z,98610.92
2023-12-21T02:41:21.204Z,98601.38
2023-12-21T02:43:53.243Z,98592.83
2023-12-21T02:46:29.003Z,98586.98
2023-12-21T02:49:01.548Z,98578.46
2023-12-21T02:51:33.733Z,98575.00
2023-12-21T02:54:05.732Z,98569.87
2023-12-21T02:56:37.881Z,98569.72
2023-12-21T02:59:10.265Z,98559.83
2023-12-21T03:01:45.235Z,98552.17
2023-12-21T03:04:17.834Z,98547.20
2023-12-21T03:06:49.974Z,98537.91
2023-12-21T03:09:21.989Z,98529.55
2023-12-21T03:11:54.034Z,98529.84
2023-12-21T03:14:26.080Z,98521.95
2023-12-21T03:16:58.285Z,98522.42
2023-12-21T03:19:30.968Z,98511.25
2023-12-21T03:22:03.608Z,98504.58
2023-12-21T03:24:35.693Z,98497.41
2023-12-21T03:27:11.076Z,98491.04
2023-12-21T03:29:44.296Z,98486.42
2023-12-21T03:32:16.326Z,98488.26
2023-12-21T03:34:48.466Z,98481.95
2023-12-21T03:37:20.597Z,98479.34
2023-12-21T03:39:52.772Z,98475.77
2023-12-21T03:42:24.844Z,98480.01
2023-12-21T03:44:57.030Z,98477.55
2023-12-21T03:47:29.095Z,98469.73
2023-12-21T03:50:01.150Z,98457.83
2023-12-21T03:52:33.290Z,98452.29
2023-12-21T03:55:06.121Z,98452.81
2023-12-21T03:57:38.201Z,98449.79
2023-12-21T04:00:12.314Z,98440.25
2023-12-21T04:02:44.661Z,98439.91
2023-12-21T04:05:17.233Z,98431.73
2023-12-21T04:07:49.408Z,98422.73
2023-12-21T04:10:21.537Z,98422.60
2023-12-21T04:12:53.603Z,98410.55
2023-12-21T04:15:25.730Z,98401.06
2023-12-21T04:17:57.855Z,98399.92
2023-12-21T04:20:30.001Z,98394.34
2023-12-21T04:23:01.973Z,98396.64
2023-12-21T04:25:34.105Z,98395.31
2023-12-21T04:28:08.020Z,98391.05
2023-12-21T04:30:40.044Z,98388.70
2023-12-21T04:33:15.134Z,98377.81
2023-12-21T04:35:48.381Z,98373.55
2023-12-21T04:38:20.379Z,98367.58
2023-12-21T04:40:52.402Z,98369.94
2023-12-21T04:43:24.581Z,98370.43
2023-12-21T04:45:56.620Z,98361.74
2023-12-21T04:48:28.746Z,98357.46
2023-12-21T04:51:01.881Z,98349.45
2023-12-21T04:53:33.965Z,98350.41
2023-12-21T04:56:08.766Z,98342.20
2023-12-21T04:58:42.116Z,98340.27
2023-12-21T05:01:14.386Z,98331.05
2023-12-21T05:03:46.485Z,98328.63
2023-12-21T05:06:18.762Z,98327.70
2023-12-21T05:08:50.811Z,98331.05
2023-12-21T05:11:22.866Z,98323.30
2023-12-21T05:13:55.001Z,98324.43
2023-12-21T05:16:27.219Z,98322.11
2023-12-21T05:18:59.636Z,98326.97
2023-12-21T05:21:31.677Z,98325.06
2023-12-21T05:24:03.694Z,98321.05
2023-12-21T05:26:35.693Z,98318.39
2023-12-21T05:29:07.688Z,98320.73
2023-12-21T05:31:39.785Z,98324.59
2023-12-21T05:34:12.124Z,98316.67
2023-12-21T05:36:44.899Z,98313.02
2023-12-21T05:39:18.967Z,98316.25
2023-12-21T05:41:51.163Z,98314.98
2023-12-21T05:44:23.161Z,98312.61
2023-12-21T05:46:55.143Z,98305.43
2023-12-21T05:49:27.377Z,98297.75
2023-12-21T05:52:00.865Z,98300.44
2023-12-21T05:54:33.080Z,98303.95
2023-12-21T05:57:05.600Z,98309.44
2023-12-21T05:59:38.583Z,98306.14
2023-12-21T06:02:11.356Z,98308.46
2023-12-21T06:04:43.898Z,98298.39
2023-12-21T06:07:15.995Z,98295.40
2023-12-21T06:09:48.028Z,98288.33
2023-12-21T06:12:20.118Z,98286.92
2023-12-21T06:14:52.230Z,98285.13
2023-12-21T06:17:24.294Z,98281.61
2023-12-21T06:19:56.295Z,98282.23
2023-12-21T06:22:28.536Z,98284.08
2023-12-21T06:25:01.187Z,98284.58
2023-12-21T06:27:33.495Z,98277.41
2023-12-21T06:30:06.465Z,98281.31
2023-12-21T06:32:38.567Z,98287.56
2023-12-21T06:35:11.667Z,98290.80
2023-12-21T06:37:43.702Z,98289.77
2023-12-21T06:40:16.245Z,98292.11
2023-12-21T06:42:48.534Z,98290.90
2023-12-21T06:45:20.800Z,98288.17
2023-12-21T06:47:52.983Z,98282.33
2023-12-21T06:50:25.076Z,98283.49
2023-12-21T06:52:57.152Z,98272.75
2023-12-21T06:55:29.216Z,98265.93
2023-12-21T06:58:01.324Z,98264.60
2023-12-21T07:00:33.355Z,98266.61
2023-12-21T07:03:06.110Z,98269.87
2023-12-21T07:05:38.231Z,98264.44
2023-12-21T07:08:10.803Z,98264.58
2023-12-21T07:10:43.002Z,98259.81
2023-12-21T07:13:15.287Z,98255.41
2023-12-21T07:15:47.399Z,98253.19
2023-12-21T07:18:19.510Z,98246.58
2023-12-21T07:20:51.626Z,98244.25
2023-12-21T07:23:23.723Z,98242.26
2023-12-21T07:25:55.793Z,98239.98
2023-12-21T07:28:30.100Z,98234.64
2023-12-21T07:31:02.513Z,98235.95
2023-12-21T07:33:35.782Z,98234.35
2023-12-21T07:36:09.632Z,98235.78
2023-12-21T07:38:41.721Z,98233.11
2023-12-21T07:41:14.825Z,98229.98
2023-12-21T07:43:47.469Z,98227.86
2023-12-21T07:46:19.846Z,98226.58
2023-12-21T07:48:52.273Z,98216.25
2023-12-21T07:51:24.402Z,98217.87
2023-12-21T07:53:56.596Z,98222.03
2023-12-21T07:56:28.657Z,98223.34
2023-12-21T07:59:05.813Z,98218.13
2023-12-21T08:01:38.339Z,98220.20
2023-12-21T08:04:11.549Z,98214.79
2023-12-21T08:06:43.759Z,98200.66
2023-12-21T08:09:16.725Z,98198.48
2023-12-21T08:11:48.811Z,98192.91
2023-12-21T08:14:21.575Z,98194.68
2023-12-21T08:16:54.277Z,98188.77
2023-12-21T08:19:26.413Z,98189.14
2023-12-21T08:21:58.761Z,98190.04
2023-12-21T08:24:31.124Z,98179.38
2023-12-21T08:27:03.119Z,98170.02
2023-12-21T08:29:35.277Z,98170.08
2023-12-21T08:32:09.878Z,98165.90
2023-12-21T08:34:42.294Z,98151.29
2023-12-21T08:37:14.925Z,98145.73
2023-12-21T08:39:47.007Z,98137.64
2023-12-21T08:42:19.021Z,98131.08
2023-12-21T08:44:51.922Z,98118.91
2023-12-21T08:47:23.955Z,98108.33
2023-12-21T08:49:57.258Z,98102.14
2023-12-21T08:52:29.660Z,98094.98
2023-12-21T08:55:01.961Z,98089.89
2023-12-21T08:57:37.432Z,98072.23
2023-12-21T09:00:14.773Z,98062.84
2023-12-21T09:02:48.318Z,98066.26
2023-12-21T09:05:20.881Z,98056.48
2023-12-21T09:07:52.927Z,98053.52
2023-12-21T09:10:25.320Z,98056.41
2023-12-21T09:12:57.549Z,98059.29
2023-12-21T09:15:30.185Z,98058.40
2023-12-21T09:18:04.187Z,98049.86
2023-12-21T09:20:36.501Z,98043.90
2023-12-21T09:23:08.498Z,98034.55
2023-12-21T09:25:40.977Z,98030.15
2023-12-21T09:28:13.366Z,98025.19
2023-12-21T09:30:45.541Z,98022.13
2023-12-21T09:33:19.832Z,98020.77
2023-12-21T09:35:55.634Z,98018.58
2023-12-21T09:38:27.876Z,98014.85
2023-12-21T09:41:01.550Z,98001.70
2023-12-21T09:43:36.112Z,97991.13
2023-12-21T09:46:10.243Z,97983.96
2023-12-21T09:48:44.269Z,97977.14
2023-12-21T09:51:17.653Z,97968.75
2023-12-21T09:53:51.744Z,97964.80
2023-12-21T09:56:25.362Z,97952.35
2023-12-21T09:58:59.567Z,97942.11
2023-12-21T10:01:32.211Z,97938.39
2023-12-21T10:04:04.994Z,97929.84
2023-12-21T10:06:37.797Z,97915.34
2023-12-21T10:09:11.778Z,97906.62
2023-12-21T10:11:44.032Z,97894.99
2023-12-21T10:14:21.118Z,97895.36
2023-12-21T10:16:53.305Z,97895.18
2023-12-21T10:19:27.099Z,97890.09
2023-12-21T10:21:59.205Z,97884.46
2023-12-21T10:24:33.155Z,97871.33
2023-12-21T10:27:06.487Z,97865.70
2023-12-21T10:29:38.598Z,97864.89
2023-12-21T10:32:11.531Z,97852.73
2023-12-21T10:34:44.330Z,97844.71
2023-12-21T10:37:17.251Z,97834.47
2023-12-21T10:39:51.400Z,97830.21
2023-12-21T10:42:23.551Z,97826.29
2023-12-21T10:44:55.656Z,97823.22
2023-12-21T10:47:27.968Z,97800.02
2023-12-21T10:50:00.649Z,97796.76
2023-12-21T10:52:33.509Z,97786.87
2023-12-21T10:55:06.852Z,97781.38
2023-12-21T10:57:39.645Z,97772.84
2023-12-21T11:00:17.070Z,97763.94
2023-12-21T11:02:50.376Z,97761.20
2023-12-21T11:05:24.897Z,97751.63
2023-12-21T11:07:59.602Z,97743.61
2023-12-21T11:10:32.000Z,97737.62
2023-12-21T11:13:04.600Z,97734.04
2023-12-21T11:15:36.652Z,97724.65
2023-12-21T11:18:14.541Z,97716.13
2023-12-21T11:20:52.390Z,97710.85
2023-12-21T11:23:26.279Z,97705.06
2023-12-21T11:26:01.994Z,97695.50
2023-12-21T11:28:35.210Z,97693.46
2023-12-21T11:31:16.862Z,97684.08
2023-12-21T11:33:50.278Z,97670.95
2023-12-21T11:36:28.622Z,97664.48
2023-12-21T11:39:01.847Z,97659.70
2023-12-21T11:41:33.888Z,97658.66
2023-12-21T11:44:07.849Z,97649.95
2023-12-21T11:46:41.563Z,97645.67
2023-12-21T11:49:23.119Z,97634.39
2023-12-21T11:51:55.657Z,97622.27
2023-12-21T11:54:28.255Z,97620.39
2023-12-21T11:57:15.820Z,97613.55
2023-12-21T11:59:47.912Z,97608.42
2023-12-21T12:02:19.947Z,97602.28
2023-12-21T12:04:54.562Z,97595.11
2023-12-21T12:07:27.325Z,97587.59
2023-12-21T12:09:59.449Z,97583.65
2023-12-21T12:12:31.932Z,97575.48
2023-12-21T12:15:05.059Z,97563.35
2023-12-21T12:17:45.871Z,97549.19
2023-12-21T12:20:20.545Z,97531.81
2023-12-21T12:22:54.919Z,97524.29
2023-12-21T12:25:28.361Z,97517.48
2023-12-21T12:28:00.578Z,97514.06
2023-12-21T12:30:32.787Z,97506.73
2023-12-21T12:33:06.422Z,97501.97
2023-12-21T12:35:41.923Z,97502.14
2023-12-21T12:38:14.104Z,97495.34
2023-12-21T12:40:48.449Z,97491.41
2023-12-21T12:43:21.241Z,97478.62
2023-12-21T12:45:54.133Z,97479.65
2023-12-21T12:48:26.447Z,97478.97
2023-12-21T12:51:00.334Z,97478.63
2023-12-21T12:53:32.399Z,97474.37
2023-12-21T12:56:06.171Z,97466.02
2023-12-21T12:58:49.070Z,97462.09
2023-12-21T13:01:29.865Z,97449.81
2023-12-21T13:04:02.592Z,97444.02
2023-12-21T13:06:34.961Z,97437.20
2023-12-21T13:09:07.746Z,97430.20
2023-12-21T13:11:39.845Z,97421.67
2023-12-21T13:14:12.166Z,97410.92
2023-12-21T13:16:46.307Z,97409.04
2023-12-21T13:19:18.557Z,97401.00
2023-12-21T13:21:51.180Z,97392.31
2023-12-21T13:24:23.700Z,97386.34
2023-12-21T13:26:55.773Z,97372.70
2023-12-21T13:29:28.926Z,97359.92
2023-12-21T13:32:01.759Z,97355.48
2023-12-21T13:34:34.233Z,97343.73
2023-12-21T13:37:07.191Z,97337.58
2023-12-21T13:39:39.329Z,97326.67
2023-12-21T13:42:11.423Z,97320.53
2023-12-21T13:44:44.193Z,97307.92
2023-12-21T13:47:18.335Z,97306.37
2023-12-21T13:49:50.458Z,97302.79
2023-12-21T13:52:23.608Z,97292.74
2023-12-21T13:54:55.883Z,97290.87
2023-12-21T13:57:27.878Z,97278.26
2023-12-21T14:00:04.698Z,97272.80
2023-12-21T14:02:44.356Z,97259.34
2023-12-21T14:05:16.991Z,97250.48
2023-12-21T14:07:49.478Z,97241.45
2023-12-21T14:10:23.100Z,97227.96
2023-12-21T14:12:58.677Z,97219.78
2023-12-21T14:15:31.338Z,97211.60
2023-12-21T14:18:03.898Z,97195.76
2023-12-21T14:20:36.467Z,97182.98
2023-12-21T14:23:08.815Z,97180.08
2023-12-21T14:25:42.066Z,97170.36
2023-12-21T14:28:14.143Z,97164.75
2023-12-21T14:30:46.304Z,97159.63
2023-12-21T14:33:18.594Z,97155.88
2023-12-21T14:35:50.600Z,97148.89
2023-12-21T14:38:22.952Z,97146.00
2023-12-21T14:40:55.171Z,97131.67
2023-12-21T14:43:27.219Z,97123.67
2023-12-21T14:45:59.382Z,97117.34
2023-12-21T14:48:31.536Z,97111.90
2023-12-21T14:51:06.018Z,97098.59
2023-12-21T14:53:38.468Z,97095.52
2023-12-21T14:56:10.834Z,97084.59
2023-12-21T14:58:42.943Z,97073.51
2023-12-21T15:01:15.045Z,97071.11
2023-12-21T15:03:47.069Z,97061.05
2023-12-21T15:06:19.293Z,97058.66
2023-12-21T15:08:51.310Z,97046.38
2023-12-21T15:11:23.914Z,97041.92
2023-12-21T15:13:58.128Z,97033.89
2023-12-21T15:16:30.467Z,97029.95
2023-12-21T15:19:02.992Z,97020.05
2023-12-21T15:21:35.296Z,97013.05
2023-12-21T15:24:08.030Z,97008.78
2023-12-21T15:26:39.990Z,97000.92
2023-12-21T15:29:12.023Z,96997.00
2023-12-21T15:31:45.207Z,96999.39
2023-12-21T15:34:17.473Z,96986.40
2023-12-21T15:36:49.650Z,96981.77
2023-12-21T15:39:21.617Z,96975.80
2023-12-21T15:41:53.988Z,96968.59
2023-12-21T15:44:26.347Z,96960.23
2023-12-21T15:46:58.476Z,96954.23
2023-12-21T15:49:30.621Z,96940.41
2023-12-21T15:52:05.384Z,96932.70
2023-12-21T15:54:37.699Z,96930.79
2023-12-21T15:57:09.708Z,96924.09
2023-12-21T15:59:42.481Z,96917.09
2023-12-21T16:02:15.045Z,96902.40
2023-12-21T16:04:47.164Z,96891.95
2023-12-21T16:07:19.251Z,96878.63
2023-12-21T16:09:52.088Z,96866.48
2023-12-21T16:12:24.073Z,96852.78
2023-12-21T16:14:56.624Z,96853.29
2023-12-21T16:17:28.563Z,96849.84
2023-12-21T16:20:00.800Z,96852.88
2023-12-21T16:22:33.034Z,96849.40
2023-12-21T16:25:05.854Z,96852.26
2023-12-21T16:27:38.140Z,96840.80
2023-12-21T16:30:16.530Z,96838.05
2023-12-21T16:32:50.219Z,96828.66
2023-12-21T16:35:22.439Z,96827.45
2023-12-21T16:37:54.691Z,96826.59
2023-12-21T16:40:27.008Z,96817.85
2023-12-21T16:42:59.112Z,96807.60
2023-12-21T16:45:32.494Z,96807.08
2023-12-21T16:48:05.362Z,96803.31
2023-12-21T16:50:37.417Z,96797.69
2023-12-21T16:53:09.512Z,96787.41
2023-12-21T16:55:41.970Z,96779.23
2023-12-21T16:58:14.038Z,96772.39
2023-12-21T17:00:46.511Z,96768.30
2023-12-21T17:03:19.179Z,96761.83
2023-12-21T17:05:51.468Z,96749.38
2023-12-21T17:08:23.841Z,96756.58
2023-12-21T17:10:55.919Z,96744.30
2023-12-21T17:13:27.982Z,96736.96
2023-12-21T17:16:00.881Z,96739.88
2023-12-21T17:18:32.996Z,96743.42
2023-12-21T17:21:05.518Z,96743.39
2023-12-21T17:23:37.513Z,96744.38
2023-12-21T17:26:10.209Z,96734.79
2023-12-21T17:28:43.607Z,96716.39
2023-12-21T17:31:15.697Z,96712.35
2023-12-21T17:33:51.907Z,96702.83
2023-12-21T17:36:24.322Z,96690.86
2023-12-21T17:38:56.339Z,96675.16
2023-12-21T17:41:28.285Z,96675.67
2023-12-21T17:44:00.372Z,96683.71
2023-12-21T17:46:32.397Z,96686.92
2023-12-21T17:49:04.669Z,96677.67
2023-12-21T17:51:37.035Z,96671.38
2023-12-21T17:54:09.769Z,96658.24
2023-12-21T17:56:41.785Z,96658.81
2023-12-21T17:59:13.799Z,96661.88
2023-12-21T18:01:45.891Z,96658.83
2023-12-21T18:04:17.952Z,96650.52
2023-12-21T18:06:54.305Z,96646.27
2023-12-21T18:09:26.784Z,96652.64
2023-12-21T18:11:58.853Z,96646.17
2023-12-21T18:14:30.872Z,96642.46
2023-12-21T18:17:02.973Z,96641.63
2023-12-21T18:19:35.336Z,96640.09
2023-12-21T18:22:09.636Z,96634.98
2023-12-21T18:24:43.956Z,96633.77
2023-12-21T18:27:18.747Z,96626.22
2023-12-21T18:29:50.920Z,96627.05
2023-12-21T18:32:22.904Z,96612.48
2023-12-21T18:34:55.326Z,96613.66
2023-12-21T18:37:27.450Z,96610.24
2023-12-21T18:39:59.539Z,96613.25
2023-12-21T18:42:31.744Z,96608.58
2023-12-21T18:45:04.831Z,96603.60
2023-12-21T18:47:36.821Z,96606.29
2023-12-21T18:50:10.490Z,96605.23
2023-12-21T18:52:42.504Z,96607.22
2023-12-21T18:55:14.693Z,96598.98
2023-12-21T18:57:46.889Z,96588.70
2023-12-21T19:00:20.759Z,96590.15
2023-12-21T19:02:53.076Z,96582.39
2023-12-21T19:05:27.703Z,96578.05
2023-12-21T19:08:00.083Z,96573.85
2023-12-21T19:10:32.667Z,96573.67
2023-12-21T19:13:04.988Z,96571.66
2023-12-21T19:15:37.432Z,96567.41
2023-12-21T19:18:09.841Z,96575.76
2023-12-21T19:20:47.339Z,96576.09
2023-12-21T19:23:21.963Z,96578.30
2023-12-21T19:25:55.692Z,96576.02
2023-12-21T19:28:29.877Z,96565.82
2023-12-21T19:31:02.960Z,96568.68
2023-12-21T19:33:35.228Z,96560.27
2023-12-21T19:36:16.818Z,96566.39
2023-12-21T19:38:49.458Z,96566.96
2023-12-21T19:41:28.025Z,96562.56
2023-12-21T19:44:00.732Z,96550.80
2023-12-21T19:46:33.264Z,96547.41
2023-12-21T19:49:07.407Z,96561.43
2023-12-21T19:51:39.508Z,96568.83
2023-12-21T19:54:15.706Z,96587.83
2023-12-21T19:56:48.002Z,96605.97
2023-12-21T19:59:20.491Z,96621.71
2023-12-21T20:01:54.088Z,96643.41
2023-12-21T20:04:27.835Z,96650.44
2023-12-21T20:07:00.169Z,96668.99
2023-12-21T20:09:32.542Z,96683.71
2023-12-21T20:12:05.438Z,96696.73
2023-12-21T20:14:37.696Z,96691.14
2023-12-21T20:17:09.990Z,96669.86
2023-12-21T20:19:42.996Z,96648.92
2023-12-21T20:22:15.603Z,96624.15
2023-12-21T20:24:50.004Z,96612.55
2023-12-21T20:27:24.577Z,96609.83
2023-12-21T20:29:57.905Z,96622.79
2023-12-21T20:32:30.317Z,96652.14
2023-12-21T20:35:04.012Z,96634.26
2023-12-21T20:37:41.099Z,96624.56
2023-12-21T20:40:15.145Z,96613.65
2023-12-21T20:42:49.746Z,96595.41
2023-12-21T20:45:22.800Z,96593.55
2023-12-21T20:47:55.489Z,96591.20
2023-12-21T20:50:27.870Z,96598.20
2023-12-21T20:53:02.684Z,96602.52
2023-12-21T20:55:34.843Z,96612.10
2023-12-21T20:58:10.531Z,96621.00
2023-12-21T21:00:43.402Z,96622.55
2023-12-21T21:03:15.892Z,96622.05
2023-12-21T21:05:49.426Z,96618.10
2023-12-21T21:08:21.650Z,96594.73
2023-12-21T21:10:53.873Z,96598.14
2023-12-21T21:13:26.215Z,96598.67
2023-12-21T21:15:58.240Z,96624.96
2023-12-21T21:18:30.521Z,96629.75
2023-12-21T21:21:02.612Z,96631.16
2023-12-21T21:23:34.821Z,96641.77
2023-12-21T21:26:10.607Z,96648.58
2023-12-21T21:28:42.743Z,96655.89
2023-12-21T21:31:18.305Z,96669.39
2023-12-21T21:33:52.231Z,96680.79
2023-12-21T21:36:24.347Z,96688.48
2023-12-21T21:38:56.455Z,96695.13
2023-12-21T21:41:28.525Z,96697.00
2023-12-21T21:44:00.694Z,96690.50
2023-12-21T21:46:32.885Z,96691.37
2023-12-21T21:49:04.936Z,96695.64
2023-12-21T21:51:42.939Z,96692.56
2023-12-21T21:54:15.040Z,96703.33
2023-12-21T21:56:47.065Z,96702.46
2023-12-21T21:59:19.087Z,96698.52
2023-12-21T22:01:51.144Z,96684.88
2023-12-21T22:04:23.375Z,96673.95
2023-12-21T22:06:55.539Z,96682.15
2023-12-21T22:09:27.554Z,96683.86
2023-12-21T22:11:59.546Z,96681.98
2023-12-21T22:14:31.513Z,96679.08
2023-12-21T22:17:03.540Z,96692.90
2023-12-21T22:19:39.453Z,96698.38
2023-12-21T22:22:11.543Z,96710.71
2023-12-21T22:24:43.585Z,96716.90
2023-12-21T22:27:15.634Z,96720.84
2023-12-21T22:29:49.166Z,96725.79
2023-12-21T22:32:23.739Z,96735.89
2023-12-21T22:34:55.864Z,96748.36
2023-12-21T22:37:27.997Z,96759.84
2023-12-21T22:40:00.104Z,96748.95
2023-12-21T22:42:32.183Z,96747.11
2023-12-21T22:45:04.255Z,96759.60
2023-12-21T22:47:36.433Z,96762.48
2023-12-21T22:50:10.017Z,96757.89
2023-12-21T22:52:42.133Z,96764.73
2023-12-21T22:55:14.615Z,96765.08
2023-12-21T22:57:47.059Z,96768.82
2023-12-21T23:00:22.911Z,96765.22
2023-12-21T23:02:55.279Z,96763.36
2023-12-21T23:05:27.599Z,96771.20
2023-12-21T23:07:59.733Z,96775.09
2023-12-21T23:10:31.983Z,96776.79
2023-12-21T23:13:04.874Z,96766.69
2023-12-21T23:15:37.152Z,96771.28
2023-12-21T23:18:09.388Z,96777.23
2023-12-21T23:20:41.414Z,96775.54
2023-12-21T23:23:13.462Z,96766.62
2023-12-21T23:25:45.554Z,96766.96
2023-12-21T23:28:17.617Z,96771.70
2023-12-21T23:30:51.543Z,96776.83
2023-12-21T23:33:25.404Z,96785.52
2023-12-21T23:35:57.567Z,96797.58
2023-12-21T23:38:31.929Z,96809.48
2023-12-21T23:41:04.709Z,96824.98
2023-12-21T23:43:38.143Z,96832.88
2023-12-21T23:46:10.219Z,96832.96
2023-12-21T23:48:42.328Z,96844.33
2023-12-21T23:51:14.473Z,96848.52
2023-12-21T23:53:46.600Z,96845.02
2023-12-21T23:56:18.791Z,96840.84
2023-12-21T23:58:50.955Z,96841.25
